Time;durP1;ratioP1;P1;durP2;ratioP2;P2;SDS_P1;SDS_P2;PMS_P1;PMS_P2;Temp;Humidity;BMP_temperature;BMP_pressure;BME280_temperature;BME280_humidity;BME280_pressure;Samples;Min_cycle;Max_cycle;Signal;HPM_P1;HPM_P2
2021/09/28 00:05:16;;;;;;;7;4.4;;;;;;;10.27;100;98869.55;;;;
2021/09/28 00:15:15;;;;;;;7.1;3.7;;;;;;;10.15;100;98880;;;;
2021/09/28 00:25:14;;;;;;;9.4;4.9;;;;;;;9.95;100;98876.56;;;;
2021/09/28 00:35:13;;;;;;;9.1;4.4;;;;;;;9.88;100;98878.83;;;;
2021/09/28 00:45:12;;;;;;;6;4.8;;;;;;;9.71;100;98878.59;;;;
2021/09/28 00:55:11;;;;;;;9.8;4.2;;;;;;;9.59;100;98875.54;;;;
2021/09/28 01:05:10;;;;;;;9.8;5.2;;;;;;;9.49;100;98881.08;;;;
2021/09/28 01:15:09;;;;;;;8.6;4.1;;;;;;;9.42;100;98894.91;;;;
2021/09/28 01:25:08;;;;;;;7.6;4.9;;;;;;;9.3;100;98888.38;;;;
2021/09/28 01:35:07;;;;;;;9.1;4.9;;;;;;;9.22;100;98899.78;;;;
2021/09/28 01:45:06;;;;;;;11.9;4.4;;;;;;;9.14;100;98905.8;;;;
2021/09/28 01:55:06;;;;;;;11.7;5;;;;;;;9.06;100;98909.94;;;;
2021/09/28 02:05:06;;;;;;;13.3;4.4;;;;;;;8.94;100;98912.26;;;;
2021/09/28 02:15:03;;;;;;;10.5;4.6;;;;;;;8.81;100;98913.77;;;;
2021/09/28 02:25:02;;;;;;;9.3;5.9;;;;;;;8.69;100;98904.5;;;;
2021/09/28 02:35:01;;;;;;;5.4;4.2;;;;;;;8.61;100;98913.22;;;;
2021/09/28 02:45:00;;;;;;;5.8;4.2;;;;;;;8.51;100;98911.42;;;;
2021/09/28 02:54:58;;;;;;;7.7;4.3;;;;;;;8.41;100;98912.34;;;;
2021/09/28 03:04:57;;;;;;;7.4;4.4;;;;;;;8.35;100;98912.68;;;;
2021/09/28 03:14:56;;;;;;;10.7;5.6;;;;;;;8.31;100;98917.82;;;;
2021/09/28 03:24:55;;;;;;;9.2;5;;;;;;;8.29;100;98930.74;;;;
2021/09/28 03:34:54;;;;;;;8.7;4.8;;;;;;;8.26;100;98922.42;;;;
2021/09/28 03:44:53;;;;;;;6.5;4.3;;;;;;;8.31;100;98925.88;;;;
2021/09/28 03:54:53;;;;;;;7.8;5.4;;;;;;;8.57;100;98937.94;;;;
2021/09/28 04:04:50;;;;;;;10.8;5.7;;;;;;;8.7;100;98941.84;;;;
2021/09/28 04:14:49;;;;;;;12.2;7.5;;;;;;;8.84;100;98945.45;;;;
2021/09/28 04:24:50;;;;;;;12.1;7.5;;;;;;;8.89;100;98958.8;;;;
2021/09/28 04:34:49;;;;;;;11.2;9.5;;;;;;;8.93;100;98954.47;;;;
2021/09/28 04:44:49;;;;;;;9.9;7.7;;;;;;;8.81;100;98958.66;;;;
2021/09/28 04:54:49;;;;;;;12.1;10.2;;;;;;;8.91;100;98972.78;;;;
2021/09/28 05:04:44;;;;;;;12.5;9.6;;;;;;;9.16;100;98966.3;;;;
2021/09/28 05:14:43;;;;;;;13.5;8.8;;;;;;;9.11;100;98974.41;;;;
2021/09/28 05:24:42;;;;;;;12.8;10.4;;;;;;;9.03;100;98989.28;;;;
2021/09/28 05:34:41;;;;;;;11.7;10.1;;;;;;;9.34;100;98997.77;;;;
2021/09/28 05:44:40;;;;;;;16.5;11.5;;;;;;;9.36;100;98998.3;;;;
2021/09/28 05:54:47;;;;;;;12.6;9.8;;;;;;;9.41;100;99005.48;;;;
2021/09/28 06:04:38;;;;;;;23.7;10.6;;;;;;;9.42;100;99015.16;;;;
2021/09/28 06:14:38;;;;;;;13.2;8.9;;;;;;;9.65;100;99038.52;;;;
2021/09/28 06:24:37;;;;;;;10.7;8.7;;;;;;;9.85;100;99042.83;;;;
2021/09/28 06:34:36;;;;;;;30.4;12.2;;;;;;;10;100;99056.86;;;;
2021/09/28 06:44:35;;;;;;;15.4;9.6;;;;;;;10.16;100;99056.67;;;;
2021/09/28 06:54:34;;;;;;;14.6;8.5;;;;;;;10.59;100;99068.88;;;;
2021/09/28 07:04:34;;;;;;;11.1;8.9;;;;;;;10.58;100;99073.5;;;;
2021/09/28 07:14:33;;;;;;;9.7;7.8;;;;;;;10.68;100;99077.91;;;;
2021/09/28 07:24:32;;;;;;;11.9;7.3;;;;;;;10.99;100;99089.77;;;;
2021/09/28 07:34:32;;;;;;;10.4;8.3;;;;;;;11;100;99101.36;;;;
2021/09/28 07:44:31;;;;;;;12.7;8.9;;;;;;;11.31;100;99112.38;;;;
2021/09/28 07:54:31;;;;;;;15.5;12.2;;;;;;;11.07;100;99113.33;;;;
2021/09/28 08:04:30;;;;;;;13.8;10.4;;;;;;;11.52;100;99119.75;;;;
2021/09/28 08:14:29;;;;;;;13.6;10.7;;;;;;;11.72;100;99123.19;;;;
2021/09/28 08:24:31;;;;;;;17.1;10.2;;;;;;;12.04;100;99120.35;;;;
2021/09/28 08:34:28;;;;;;;15.2;11.7;;;;;;;12.14;100;99124.72;;;;
2021/09/28 08:44:28;;;;;;;15;12.6;;;;;;;12.6;100;99136.86;;;;
2021/09/28 08:54:27;;;;;;;14.6;11.4;;;;;;;12.62;100;99141.98;;;;
2021/09/28 09:04:27;;;;;;;12.3;11;;;;;;;12.6;100;99149.58;;;;
2021/09/28 09:14:27;;;;;;;16.3;9.6;;;;;;;12.8;100;99159.94;;;;
2021/09/28 09:24:26;;;;;;;12.8;9.8;;;;;;;12.64;100;99147.87;;;;
2021/09/28 09:34:27;;;;;;;11.2;8.7;;;;;;;13.59;100;99149.23;;;;
2021/09/28 09:44:25;;;;;;;11;9.8;;;;;;;13.04;100;99148.78;;;;
2021/09/28 09:54:25;;;;;;;11.2;9.4;;;;;;;13.33;100;99148.34;;;;
2021/09/28 10:04:25;;;;;;;14.9;9.4;;;;;;;13.2;100;99144.59;;;;
2021/09/28 10:14:24;;;;;;;10.6;8.5;;;;;;;13.87;100;99166.06;;;;
2021/09/28 10:34:23;;;;;;;12.8;8;;;;;;;13.85;100;99174.48;;;;
2021/09/28 10:44:23;;;;;;;9.7;5.5;;;;;;;14.2;100;99166.44;;;;
2021/09/28 10:54:23;;;;;;;8.3;7;;;;;;;14.26;100;99157.86;;;;
2021/09/28 11:04:25;;;;;;;10;5.5;;;;;;;14.76;100;99155.48;;;;
2021/09/28 11:14:22;;;;;;;10.8;7.2;;;;;;;15.24;100;99166.09;;;;
2021/09/28 11:24:22;;;;;;;10;7.7;;;;;;;14.74;100;99174.02;;;;
2021/09/28 11:34:22;;;;;;;8;6.1;;;;;;;14.69;100;99152.45;;;;
2021/09/28 11:44:21;;;;;;;12;7.5;;;;;;;15.18;100;99150.3;;;;
2021/09/28 11:54:21;;;;;;;9.8;7.2;;;;;;;15.45;100;99152.6;;;;
2021/09/28 12:04:32;;;;;;;11.6;7.6;;;;;;;15.38;100;99152.3;;;;
2021/09/28 12:14:21;;;;;;;13.6;6.7;;;;;;;15.58;100;99155.13;;;;
2021/09/28 12:24:21;;;;;;;11.3;6.8;;;;;;;15.76;100;99160.52;;;;
2021/09/28 12:34:21;;;;;;;9.6;7.1;;;;;;;15.16;100;99166.13;;;;
2021/09/28 12:44:21;;;;;;;12.4;7.8;;;;;;;15.56;100;99159.3;;;;
2021/09/28 12:54:21;;;;;;;10.8;8.1;;;;;;;15.69;100;99155.56;;;;
2021/09/28 13:04:21;;;;;;;11.1;8;;;;;;;15.53;100;99165.39;;;;
2021/09/28 13:14:21;;;;;;;8.2;6.6;;;;;;;15.96;100;99166;;;;
2021/09/28 13:24:21;;;;;;;6.6;5.5;;;;;;;15.93;100;99163.92;;;;
2021/09/28 13:34:21;;;;;;;11.3;7.6;;;;;;;16.16;100;99161.72;;;;
2021/09/28 13:44:21;;;;;;;12.3;9;;;;;;;16.27;100;99160.2;;;;
2021/09/28 13:54:21;;;;;;;9.6;8.4;;;;;;;16.08;100;99157.92;;;;
2021/09/28 14:04:21;;;;;;;16;9.7;;;;;;;15.74;100;99152.67;;;;
2021/09/28 14:14:21;;;;;;;13.1;8.5;;;;;;;15.67;100;99149.67;;;;
2021/09/28 14:24:21;;;;;;;12.2;9.7;;;;;;;16.14;100;99153.08;;;;
2021/09/28 14:34:21;;;;;;;15.5;9.4;;;;;;;16.3;100;99161.46;;;;
2021/09/28 14:44:21;;;;;;;14.3;9.5;;;;;;;16.6;100;99168.45;;;;
2021/09/28 14:54:21;;;;;;;11.5;9;;;;;;;17.07;100;99177.98;;;;
2021/09/28 15:04:21;;;;;;;13.6;9.2;;;;;;;16.83;100;99182.53;;;;
2021/09/28 15:14:21;;;;;;;10.1;7.2;;;;;;;17.24;100;99181.65;;;;
2021/09/28 15:24:21;;;;;;;15.1;6.8;;;;;;;16.8;100;99197.59;;;;
2021/09/28 15:34:21;;;;;;;12.2;6.8;;;;;;;16.64;100;99204.77;;;;
2021/09/28 15:44:21;;;;;;;12.1;7.5;;;;;;;16.46;100;99203.27;;;;
2021/09/28 15:54:22;;;;;;;15;8.2;;;;;;;15.53;100;99206.15;;;;
2021/09/28 16:04:21;;;;;;;9.5;7.6;;;;;;;14.85;100;99213.28;;;;
2021/09/28 16:14:21;;;;;;;13.3;8;;;;;;;14.45;100;99214.52;;;;
2021/09/28 16:24:21;;;;;;;10.6;6.9;;;;;;;13.77;100;99210.5;;;;
2021/09/28 16:34:20;;;;;;;13;9.5;;;;;;;13.44;100;99222.75;;;;
2021/09/28 16:44:20;;;;;;;13;11.8;;;;;;;13.03;100;99229.16;;;;
2021/09/28 16:54:19;;;;;;;12.9;10.3;;;;;;;12.65;100;99221.69;;;;
2021/09/28 17:04:19;;;;;;;13.7;9.5;;;;;;;12.23;100;99230.98;;;;
2021/09/28 17:14:19;;;;;;;13.1;10;;;;;;;11.93;100;99229.71;;;;
2021/09/28 17:24:18;;;;;;;13;8.2;;;;;;;11.65;100;99242.37;;;;
2021/09/28 17:34:17;;;;;;;17.5;12.1;;;;;;;11.34;100;99250.2;;;;
2021/09/28 17:44:18;;;;;;;24.6;18.9;;;;;;;11.03;100;99241.02;;;;
2021/09/28 17:54:18;;;;;;;22.1;18.4;;;;;;;10.74;100;99243.07;;;;
2021/09/28 18:04:15;;;;;;;19.6;14.7;;;;;;;10.48;100;99235.34;;;;
2021/09/28 18:14:14;;;;;;;15.2;12.6;;;;;;;10.26;100;99232.42;;;;
2021/09/28 18:24:13;;;;;;;17.7;14.3;;;;;;;9.99;100;99243.77;;;;
2021/09/28 18:34:12;;;;;;;19.1;17.1;;;;;;;9.7;100;99247.59;;;;
2021/09/28 18:44:13;;;;;;;21.8;16.4;;;;;;;9.62;100;99251.7;;;;
2021/09/28 18:54:13;;;;;;;23.3;17.1;;;;;;;9.52;100;99257.98;;;;
2021/09/28 19:04:18;;;;;;;16.8;15.1;;;;;;;9.38;100;99256.23;;;;
2021/09/28 19:14:08;;;;;;;22.7;17.6;;;;;;;9.29;100;99249.88;;;;
2021/09/28 19:24:07;;;;;;;17.5;15.9;;;;;;;9.2;100;99248.89;;;;
2021/09/28 19:34:06;;;;;;;20.3;16.2;;;;;;;9.17;100;99244.05;;;;
2021/09/28 19:44:08;;;;;;;20.5;15.7;;;;;;;9.12;100;99249.48;;;;
2021/09/28 19:54:07;;;;;;;21.4;14.5;;;;;;;9.16;100;99259.41;;;;
2021/09/28 20:04:11;;;;;;;21.2;14.1;;;;;;;9.2;100;99255.05;;;;
2021/09/28 20:43:59;;;;;;;17.8;14.2;;;;;;;9.1;100;99242.49;;;;
2021/09/28 20:53:59;;;;;;;14.8;12.6;;;;;;;9.04;100;99232.87;;;;
2021/09/28 21:03:57;;;;;;;13.4;11.1;;;;;;;8.91;100;99227.33;;;;
2021/09/28 21:13:56;;;;;;;13.8;12.3;;;;;;;8.87;100;99220.91;;;;
2021/09/28 21:23:55;;;;;;;13.6;11;;;;;;;8.9;100;99221.15;;;;
2021/09/28 21:33:54;;;;;;;14.8;10.9;;;;;;;8.9;100;99223.03;;;;
2021/09/28 21:43:53;;;;;;;14.3;10.7;;;;;;;8.84;100;99224.97;;;;
2021/09/28 21:53:52;;;;;;;15.1;13.5;;;;;;;8.66;100;99225.63;;;;
2021/09/28 22:03:51;;;;;;;19;13.8;;;;;;;8.43;100;99215.58;;;;
2021/09/28 22:13:50;;;;;;;14.1;11.3;;;;;;;8.26;100;99212.42;;;;
2021/09/28 22:23:49;;;;;;;16.8;13.5;;;;;;;8.08;100;99213.84;;;;
2021/09/28 22:33:48;;;;;;;15.8;12.7;;;;;;;7.89;100;99210.96;;;;
2021/09/28 22:43:47;;;;;;;20;15.8;;;;;;;7.77;100;99201.63;;;;
2021/09/28 22:53:45;;;;;;;16.8;12.9;;;;;;;7.6;100;99202.73;;;;
2021/09/28 23:03:44;;;;;;;15;12.7;;;;;;;7.48;100;99193.39;;;;
2021/09/28 23:13:43;;;;;;;22.6;14.6;;;;;;;7.41;100;99192.88;;;;
2021/09/28 23:23:42;;;;;;;19.2;15.1;;;;;;;7.37;100;99186.44;;;;
2021/09/28 23:33:40;;;;;;;13.2;11.8;;;;;;;7.24;100;99190.5;;;;
2021/09/28 23:43:41;;;;;;;14.8;11.9;;;;;;;7.12;100;99175.75;;;;
2021/09/28 23:53:41;;;;;;;18.2;14.4;;;;;;;7.12;100;99168.52;;;;
